Time;durP1;ratioP1;P1;durP2;ratioP2;P2;SDS_P1;SDS_P2;PMS_P1;PMS_P2;Temp;Humidity;BMP_temperature;BMP_pressure;BME280_temperature;BME280_humidity;BME280_pressure;Samples;Min_cycle;Max_cycle;Signal;HPM_P1;HPM_P2
2023/04/01 00:00:45;;;;;;;7.88;4.40;;;9.40;99.90;;;;;;5005918;28;20048;-67
2023/04/01 00:03:11;;;;;;;8.45;3.90;;;9.60;99.90;;;;;;5024123;28;20038;-67
2023/04/01 00:05:37;;;;;;;6.85;3.35;;;9.40;99.90;;;;;;5002526;28;20050;-67
2023/04/01 00:08:02;;;;;;;7.03;4.13;;;9.20;99.90;;;;;;5030465;28;20504;-67
2023/04/01 00:10:28;;;;;;;8.90;3.85;;;9.30;99.90;;;;;;5010262;28;20042;-68
2023/04/01 00:12:54;;;;;;;7.93;3.83;;;9.30;99.90;;;;;;5024725;28;20036;-66
2023/04/01 00:15:19;;;;;;;5.55;3.38;;;9.50;99.90;;;;;;5004568;28;20485;-68
2023/04/01 00:17:45;;;;;;;9.23;3.97;;;9.50;99.90;;;;;;5023508;28;20058;-68
2023/04/01 00:20:12;;;;;;;7.15;3.47;;;9.30;99.90;;;;;;4994681;28;20045;-67
2023/04/01 00:22:37;;;;;;;5.70;3.30;;;9.50;99.90;;;;;;4997190;28;20033;-66
2023/04/01 00:25:04;;;;;;;5.43;3.58;;;9.20;99.90;;;;;;5028266;28;20409;-67
2023/04/01 00:27:30;;;;;;;6.18;3.55;;;9.20;99.90;;;;;;5002567;28;20511;-67
2023/04/01 00:29:56;;;;;;;4.95;3.17;;;9.20;99.90;;;;;;5018094;28;20028;-68
2023/04/01 00:32:21;;;;;;;8.00;3.15;;;9.30;99.90;;;;;;5015713;28;20072;-67
2023/04/01 00:34:51;;;;;;;5.28;3.28;;;9.40;99.90;;;;;;4991146;28;20034;-67
2023/04/01 00:37:17;;;;;;;7.63;3.97;;;9.30;99.90;;;;;;5019348;28;20393;-67
2023/04/01 00:39:42;;;;;;;5.78;3.50;;;9.30;99.90;;;;;;5005735;28;20041;-67
2023/04/01 00:42:09;;;;;;;9.25;3.58;;;9.30;99.90;;;;;;5005278;28;20080;-67
2023/04/01 00:44:38;;;;;;;7.25;4.00;;;9.30;99.90;;;;;;4999475;28;20133;-68
2023/04/01 00:47:04;;;;;;;8.80;3.50;;;9.50;99.90;;;;;;5021968;28;20128;-66
2023/04/01 00:49:38;;;;;;;8.35;4.75;;;9.50;99.90;;;;;;5017179;28;20374;-66
2023/04/01 00:52:05;;;;;;;6.88;3.88;;;9.20;99.90;;;;;;5015324;28;20037;-66
2023/04/01 00:54:34;;;;;;;6.78;3.72;;;9.50;99.90;;;;;;5023944;28;20130;-66
2023/04/01 00:57:05;;;;;;;8.48;3.85;;;9.20;99.90;;;;;;5013174;28;20057;-66
2023/04/01 00:59:35;;;;;;;7.72;3.55;;;9.40;99.90;;;;;;5001141;28;20144;-66
2023/04/01 01:02:03;;;;;;;7.68;3.88;;;9.20;99.90;;;;;;5003072;28;20099;-67
2023/04/01 01:04:32;;;;;;;7.95;3.55;;;9.50;99.90;;;;;;5006542;28;20092;-66
2023/04/01 01:07:29;;;;;;;8.52;3.78;;;9.20;99.90;;;;;;5000079;28;20034;-66
2023/04/01 01:09:55;;;;;;;8.88;4.00;;;9.40;99.90;;;;;;5027655;28;20089;-66
2023/04/01 01:12:38;;;;;;;6.68;3.58;;;9.50;99.90;;;;;;5028644;28;20535;-66
2023/04/01 01:15:21;;;;;;;8.30;3.17;;;9.50;99.90;;;;;;5022739;28;20652;-65
2023/04/01 01:18:15;;;;;;;6.40;3.58;;;9.30;99.90;;;;;;5007712;28;20044;-66
2023/04/01 01:20:56;;;;;;;7.85;3.40;;;9.20;99.90;;;;;;5021573;28;20365;-66
2023/04/01 01:23:42;;;;;;;;;;;9.20;99.90;;;;;;5020071;28;20045;-65
2023/04/01 01:26:07;;;;;;;6.88;3.13;;;9.20;99.90;;;;;;5019178;28;19917;-65
2023/04/01 01:28:33;;;;;;;7.82;3.90;;;9.50;99.90;;;;;;5030080;28;20048;-66
2023/04/01 01:31:07;;;;;;;9.60;3.85;;;9.30;99.90;;;;;;5026776;28;20489;-66
2023/04/01 01:34:02;;;;;;;5.88;3.55;;;9.40;99.90;;;;;;5014502;28;20041;-67
2023/04/01 01:36:34;;;;;;;7.05;3.13;;;9.30;99.90;;;;;;5000311;28;20053;-67
2023/04/01 01:39:06;;;;;;;6.07;3.67;;;9.20;99.90;;;;;;5011238;28;20054;-66
2023/04/01 01:41:34;;;;;;;7.80;3.55;;;9.20;99.90;;;;;;5011082;28;20532;-66
2023/04/01 01:44:04;;;;;;;8.43;3.13;;;9.20;99.90;;;;;;5022610;28;20045;-66
2023/04/01 01:46:31;;;;;;;7.90;3.63;;;9.40;99.90;;;;;;5010712;28;20038;-66
2023/04/01 01:48:59;;;;;;;6.75;3.45;;;9.40;99.90;;;;;;4999244;28;20132;-66
2023/04/01 01:51:27;;;;;;;7.28;3.58;;;9.20;99.90;;;;;;5011603;28;20041;-66
2023/04/01 01:53:53;;;;;;;7.45;4.05;;;9.30;99.90;;;;;;4999964;28;20053;-65
2023/04/01 01:56:22;;;;;;;8.80;3.60;;;9.20;99.90;;;;;;5001288;28;20084;-65
2023/04/01 01:58:57;;;;;;;8.38;3.70;;;9.30;99.90;;;;;;5006381;28;20037;-66
2023/04/01 02:01:30;;;;;;;7.22;3.33;;;9.50;99.90;;;;;;5028396;28;20041;-64
2023/04/01 02:03:57;;;;;;;5.78;2.90;;;9.20;99.90;;;;;;5026109;28;20034;-65
2023/04/01 02:06:28;;;;;;;9.50;3.28;;;9.40;99.90;;;;;;5018412;28;20042;-66
2023/04/01 02:09:02;;;;;;;5.10;3.05;;;9.10;99.90;;;;;;5011112;28;20029;-65
2023/04/01 02:11:49;;;;;;;4.63;2.22;;;9.20;99.90;;;;;;5030644;28;20092;-65
2023/04/01 02:14:19;;;;;;;8.20;2.83;;;9.20;99.90;;;;;;5026526;28;20404;-67
2023/04/01 02:16:56;;;;;;;12.20;2.90;;;9.20;99.90;;;;;;5026670;28;20041;-66
2023/04/01 02:19:33;;;;;;;5.90;2.28;;;9.40;99.90;;;;;;5023083;28;20619;-66
2023/04/01 02:22:02;;;;;;;5.43;2.70;;;9.40;99.90;;;;;;5011441;28;20037;-65
2023/04/01 02:24:31;;;;;;;6.55;2.25;;;9.40;99.90;;;;;;5005328;28;20047;-66
2023/04/01 02:26:57;;;;;;;4.50;2.47;;;9.30;99.90;;;;;;5030935;28;20432;-67
2023/04/01 02:29:27;;;;;;;4.00;2.13;;;9.30;99.90;;;;;;5015224;28;20042;-66
2023/04/01 02:31:54;;;;;;;4.57;2.33;;;9.10;99.90;;;;;;5007635;28;20033;-65
2023/04/01 02:34:22;;;;;;;4.22;2.28;;;9.10;99.90;;;;;;5008280;28;20062;-65
2023/04/01 02:36:49;;;;;;;5.53;2.33;;;9.20;99.90;;;;;;5026610;28;20037;-65
2023/04/01 02:39:15;;;;;;;4.85;2.10;;;9.20;99.90;;;;;;5028765;28;20477;-66
2023/04/01 02:41:43;;;;;;;4.18;2.08;;;9.30;99.90;;;;;;5031924;28;20037;-65
2023/04/01 02:44:11;;;;;;;5.55;2.10;;;9.10;99.90;;;;;;5006649;28;20029;-66
2023/04/01 02:46:37;;;;;;;4.47;1.92;;;9.20;99.90;;;;;;5017229;28;20496;-65
2023/04/01 02:49:03;;;;;;;6.40;2.30;;;9.40;99.90;;;;;;5021719;28;20033;-66
2023/04/01 02:51:29;;;;;;;4.38;1.95;;;9.30;99.90;;;;;;5026257;28;20053;-65
2023/04/01 02:53:54;;;;;;;4.57;2.15;;;9.20;99.90;;;;;;5006062;28;20104;-65
2023/04/01 02:56:21;;;;;;;4.30;2.15;;;9.30;99.90;;;;;;5027772;28;20048;-65
2023/04/01 02:58:47;;;;;;;5.18;2.60;;;9.20;99.90;;;;;;5020724;28;20087;-66
2023/04/01 03:01:12;;;;;;;4.70;2.15;;;9.10;99.90;;;;;;5027432;28;20041;-65
2023/04/01 03:03:39;;;;;;;5.53;2.35;;;9.20;99.90;;;;;;5026722;28;20033;-65
2023/04/01 03:06:09;;;;;;;5.07;2.42;;;9.30;99.90;;;;;;5024240;28;20041;-65
2023/04/01 03:08:35;;;;;;;4.80;2.33;;;9.20;99.90;;;;;;5024970;28;20079;-64
2023/04/01 03:11:00;;;;;;;6.43;3.28;;;9.10;99.90;;;;;;5024806;28;20041;-64
2023/04/01 03:13:26;;;;;;;7.32;3.63;;;9.10;99.90;;;;;;5027340;28;20038;-65
2023/04/01 03:15:52;;;;;;;9.45;3.08;;;9.40;99.90;;;;;;5018550;28;20033;-65
2023/04/01 03:18:18;;;;;;;6.25;3.63;;;9.20;99.90;;;;;;5024647;28;20104;-64
2023/04/01 03:20:44;;;;;;;6.60;3.17;;;9.40;99.90;;;;;;5022949;28;20485;-64
2023/04/01 03:23:09;;;;;;;8.30;3.15;;;9.10;99.90;;;;;;5030006;28;20865;-65
2023/04/01 03:25:35;;;;;;;10.27;3.22;;;9.40;99.90;;;;;;5027460;28;20088;-64
2023/04/01 03:28:01;;;;;;;8.90;3.60;;;9.30;99.90;;;;;;5024617;28;20366;-65
2023/04/01 03:30:26;;;;;;;8.32;3.78;;;9.10;99.90;;;;;;4997467;28;20038;-65
2023/04/01 03:32:52;;;;;;;7.90;3.80;;;9.40;99.90;;;;;;5019900;28;20083;-65
2023/04/01 03:35:18;;;;;;;12.85;4.90;;;9.20;99.90;;;;;;5016762;28;20096;-65
2023/04/01 03:37:44;;;;;;;10.50;4.70;;;9.20;99.90;;;;;;5021385;28;20067;-65
2023/04/01 03:40:10;;;;;;;9.77;4.30;;;9.40;99.90;;;;;;5000791;28;20045;-65
2023/04/01 03:42:36;;;;;;;9.20;4.22;;;9.20;99.90;;;;;;5019290;28;20041;-65
2023/04/01 03:45:03;;;;;;;8.40;4.35;;;9.40;99.90;;;;;;5017538;28;20753;-65
2023/04/01 03:47:29;;;;;;;8.13;4.72;;;9.30;99.90;;;;;;5017942;28;20029;-65
2023/04/01 03:49:54;;;;;;;9.98;4.40;;;9.40;99.90;;;;;;5013423;28;20036;-65
2023/04/01 03:52:20;;;;;;;9.55;4.63;;;9.40;99.90;;;;;;5025418;28;20049;-65
2023/04/01 03:54:46;;;;;;;8.85;3.90;;;9.20;99.90;;;;;;5022207;28;20049;-66
2023/04/01 03:57:12;;;;;;;9.07;4.13;;;9.30;99.90;;;;;;5006723;28;20041;-66
2023/04/01 03:59:37;;;;;;;10.57;4.07;;;9.30;99.90;;;;;;5032890;28;20044;-65
2023/04/01 04:02:03;;;;;;;9.63;4.53;;;9.20;99.90;;;;;;5025252;28;20029;-65
2023/04/01 04:04:29;;;;;;;9.25;4.38;;;9.30;99.90;;;;;;5022720;28;20049;-65
2023/04/01 04:06:56;;;;;;;8.50;4.07;;;9.30;99.90;;;;;;5013269;28;20056;-65
2023/04/01 04:09:21;;;;;;;11.60;5.38;;;9.20;99.90;;;;;;5029481;28;20033;-66
2023/04/01 04:11:47;;;;;;;8.15;4.30;;;9.20;99.90;;;;;;5012102;28;20444;-66
2023/04/01 04:14:13;;;;;;;10.48;4.90;;;9.40;99.90;;;;;;5018671;28;20051;-66
2023/04/01 04:16:39;;;;;;;10.35;4.97;;;9.30;99.90;;;;;;5028254;28;20037;-65
2023/04/01 04:19:05;;;;;;;11.27;4.60;;;9.50;99.90;;;;;;5025046;28;20149;-66
2023/04/01 04:21:30;;;;;;;9.15;4.28;;;9.30;99.90;;;;;;5017597;28;20049;-65
2023/04/01 04:23:56;;;;;;;9.95;4.80;;;9.40;99.90;;;;;;5031146;28;20037;-65
2023/04/01 04:26:21;;;;;;;9.95;4.60;;;9.40;99.90;;;;;;5020900;28;20591;-66
2023/04/01 04:28:47;;;;;;;10.20;4.22;;;9.20;99.90;;;;;;5017663;28;20037;-65
2023/04/01 04:31:20;;;;;;;11.00;5.22;;;9.50;99.90;;;;;;5024220;28;20050;-66
2023/04/01 04:33:45;;;;;;;11.10;5.20;;;9.40;99.90;;;;;;5028843;28;20052;-65
2023/04/01 04:36:11;;;;;;;11.90;5.20;;;9.20;99.90;;;;;;5002248;28;20041;-66
2023/04/01 04:38:36;;;;;;;10.93;4.75;;;9.40;99.90;;;;;;5028330;28;20037;-66
2023/04/01 04:41:02;;;;;;;9.93;4.82;;;9.40;99.90;;;;;;5024629;28;20107;-66
2023/04/01 04:43:27;;;;;;;11.45;5.05;;;9.40;99.90;;;;;;5025272;28;20049;-66
2023/04/01 04:45:53;;;;;;;10.10;5.03;;;9.40;99.90;;;;;;5025042;28;20034;-65
2023/04/01 04:48:19;;;;;;;11.35;5.00;;;9.20;99.90;;;;;;5008948;28;20037;-66
2023/04/01 04:50:47;;;;;;;11.93;5.55;;;9.40;99.90;;;;;;5021618;28;20393;-66
2023/04/01 04:53:14;;;;;;;12.07;5.35;;;9.20;99.90;;;;;;5027008;28;20050;-66
2023/04/01 04:55:48;;;;;;;11.27;5.55;;;9.40;99.90;;;;;;5007624;28;20868;-66
2023/04/01 04:58:14;;;;;;;9.10;4.97;;;9.20;99.90;;;;;;5003384;28;20172;-64
2023/04/01 05:00:40;;;;;;;13.48;5.45;;;9.20;99.90;;;;;;4997399;28;20058;-66
2023/04/01 05:03:06;;;;;;;11.82;5.68;;;9.40;99.90;;;;;;5025386;28;20029;-66
2023/04/01 05:05:31;;;;;;;9.98;4.88;;;9.30;99.90;;;;;;5023679;28;20112;-66
2023/04/01 05:07:57;;;;;;;11.38;5.10;;;9.40;99.90;;;;;;5025742;28;20034;-65
2023/04/01 05:10:23;;;;;;;11.70;4.95;;;9.30;99.90;;;;;;5031171;28;20065;-66
2023/04/01 05:12:48;;;;;;;10.70;4.38;;;9.10;99.90;;;;;;4998907;28;20078;-65
2023/04/01 05:15:14;;;;;;;11.25;4.28;;;9.20;99.90;;;;;;5026810;28;20045;-66
2023/04/01 05:17:40;;;;;;;10.07;4.32;;;9.10;99.90;;;;;;5012512;28;20079;-66
2023/04/01 05:20:06;;;;;;;10.48;4.43;;;9.30;99.90;;;;;;5024054;28;20060;-66
2023/04/01 05:22:32;;;;;;;9.00;4.00;;;9.10;99.90;;;;;;5025470;28;20037;-66
2023/04/01 05:24:57;;;;;;;6.95;3.60;;;9.20;99.90;;;;;;5023605;28;20029;-67
2023/04/01 05:27:23;;;;;;;7.82;3.97;;;9.30;99.90;;;;;;5005338;28;20073;-66
2023/04/01 05:29:49;;;;;;;7.40;3.80;;;9.20;99.90;;;;;;5024901;28;20037;-67
2023/04/01 05:32:14;;;;;;;7.00;3.35;;;9.00;99.90;;;;;;5006232;28;20045;-67
2023/04/01 05:34:40;;;;;;;7.38;4.00;;;9.30;99.90;;;;;;4994414;28;20041;-66
2023/04/01 05:37:07;;;;;;;8.95;3.85;;;9.00;99.90;;;;;;4983586;28;20041;-67
2023/04/01 05:39:37;;;;;;;8.98;4.65;;;9.10;99.90;;;;;;4991601;28;20151;-66
2023/04/01 05:42:05;;;;;;;9.13;3.80;;;9.10;99.90;;;;;;5017304;28;20042;-66
2023/04/01 05:44:30;;;;;;;9.05;4.32;;;9.10;99.90;;;;;;5017213;28;20034;-66
2023/04/01 05:46:56;;;;;;;8.35;3.88;;;9.20;99.90;;;;;;5024540;28;20408;-65
2023/04/01 05:49:21;;;;;;;8.73;3.70;;;9.10;99.90;;;;;;5004922;28;20033;-65
2023/04/01 05:51:47;;;;;;;12.07;4.25;;;9.20;99.90;;;;;;5007866;28;20086;-67
2023/04/01 05:54:13;;;;;;;10.27;3.88;;;9.20;99.90;;;;;;5013861;28;20737;-66
2023/04/01 05:56:38;;;;;;;10.20;4.32;;;9.20;99.90;;;;;;5022414;28;20091;-67
2023/04/01 05:59:04;;;;;;;8.98;4.72;;;9.20;99.90;;;;;;5007862;28;20579;-67
2023/04/01 06:01:30;;;;;;;8.88;3.83;;;9.20;99.90;;;;;;5012533;28;20050;-66
2023/04/01 06:03:55;;;;;;;9.27;4.05;;;9.00;99.90;;;;;;4995531;28;20046;-67
2023/04/01 06:06:29;;;;;;;8.55;3.92;;;9.10;99.90;;;;;;5003295;28;20103;-67
2023/04/01 06:08:58;;;;;;;9.80;4.43;;;9.20;99.90;;;;;;5014707;28;20121;-67
2023/04/01 06:11:42;;;;;;;8.40;4.05;;;9.10;99.90;;;;;;5001415;28;20095;-68
2023/04/01 06:14:28;;;;;;;7.53;3.25;;;9.00;99.90;;;;;;5018748;28;20137;-67
2023/04/01 06:17:24;;;;;;;10.63;3.90;;;9.20;99.90;;;;;;5014143;28;20037;-68
2023/04/01 06:20:14;;;;;;;9.23;4.53;;;9.10;99.90;;;;;;5013205;28;20077;-67
2023/04/01 06:22:43;;;;;;;11.60;4.45;;;9.10;99.90;;;;;;5003962;28;20475;-67
2023/04/01 06:25:31;;;;;;;9.95;4.55;;;9.30;99.90;;;;;;4999363;28;20038;-66
2023/04/01 06:28:15;;;;;;;12.10;4.68;;;9.40;99.90;;;;;;5004620;28;20034;-68
2023/04/01 06:31:07;;;;;;;8.55;4.45;;;9.30;99.90;;;;;;5019225;28;20041;-68
2023/04/01 06:33:37;;;;;;;13.95;4.95;;;9.50;99.90;;;;;;5001003;28;20099;-66
2023/04/01 06:36:06;;;;;;;13.48;5.75;;;9.50;99.90;;;;;;5018473;28;20041;-68
2023/04/01 06:38:59;;;;;;;12.02;4.93;;;9.60;99.90;;;;;;5017077;28;20033;-68
2023/04/01 06:41:46;;;;;;;12.43;5.05;;;9.50;99.90;;;;;;5022215;28;20121;-67
2023/04/01 06:44:31;;;;;;;12.48;5.53;;;9.70;99.90;;;;;;4995723;28;20058;-67
2023/04/01 06:47:14;;;;;;;10.30;5.00;;;9.60;99.90;;;;;;4997717;28;20034;-67
2023/04/01 06:49:56;;;;;;;10.77;4.65;;;9.80;99.90;;;;;;4997109;28;20053;-67
2023/04/01 06:52:46;;;;;;;15.00;5.57;;;9.90;99.90;;;;;;4998579;28;20034;-66
2023/04/01 06:55:37;;;;;;;17.33;6.13;;;10.00;99.90;;;;;;5018638;28;20097;-66
2023/04/01 06:58:09;;;;;;;15.93;6.20;;;9.80;99.90;;;;;;5019332;28;20041;-66
2023/04/01 07:00:41;;;;;;;15.43;6.90;;;9.80;99.90;;;;;;5025701;28;20032;-66
2023/04/01 07:03:29;;;;;;;16.50;6.88;;;9.80;99.90;;;;;;4998579;28;20046;-67
2023/04/01 07:05:58;;;;;;;19.38;6.95;;;9.80;99.90;;;;;;5024041;28;20076;-67
2023/04/01 07:08:26;;;;;;;17.65;7.32;;;9.80;99.90;;;;;;5030461;28;20034;-66
2023/04/01 07:11:04;;;;;;;13.90;6.20;;;9.90;99.90;;;;;;5017015;28;20041;-66
2023/04/01 07:13:55;;;;;;;17.73;6.97;;;10.20;99.90;;;;;;5032513;28;20056;-67
2023/04/01 07:16:38;;;;;;;15.30;7.10;;;10.10;99.90;;;;;;5028325;28;20076;-66
2023/04/01 07:19:22;;;;;;;15.88;7.00;;;10.10;99.90;;;;;;5026207;28;20140;-66
2023/04/01 07:21:55;;;;;;;15.77;6.57;;;10.40;99.90;;;;;;5029333;28;20045;-66
2023/04/01 07:24:32;;;;;;;14.75;5.88;;;10.10;99.90;;;;;;4994408;28;20405;-66
2023/04/01 07:26:58;;;;;;;16.90;6.47;;;10.00;99.90;;;;;;5028169;28;20100;-65
2023/04/01 07:29:25;;;;;;;15.35;6.00;;;10.30;99.90;;;;;;5033877;28;20037;-65
2023/04/01 07:32:18;;;;;;;13.75;6.47;;;10.20;99.90;;;;;;5014037;28;20049;-65
2023/04/01 07:35:09;;;;;;;13.77;5.80;;;10.30;99.90;;;;;;5009238;28;20034;-65
2023/04/01 07:37:41;;;;;;;14.35;5.90;;;10.40;99.90;;;;;;5034093;28;20504;-65
2023/04/01 07:40:26;;;;;;;14.75;5.57;;;10.50;99.90;;;;;;5031306;28;20060;-66
2023/04/01 07:43:29;;;;;;;12.48;5.80;;;10.30;99.90;;;;;;5026154;28;20063;-65
2023/04/01 07:46:06;;;;;;;12.48;5.32;;;10.30;99.90;;;;;;5031152;28;20045;-65
2023/04/01 07:48:52;;;;;;;12.73;5.80;;;10.40;99.90;;;;;;5032919;28;20365;-65
2023/04/01 07:51:36;;;;;;;13.48;5.82;;;10.50;99.90;;;;;;5029850;28;20045;-67
2023/04/01 07:54:08;;;;;;;11.30;5.93;;;10.60;99.90;;;;;;5028365;28;20479;-67
2023/04/01 07:57:01;;;;;;;11.23;5.32;;;10.40;99.90;;;;;;5013315;28;20052;-66
2023/04/01 07:59:47;;;;;;;11.30;4.72;;;10.50;99.90;;;;;;5032181;28;20183;-65
2023/04/01 08:03:03;;;;;;;13.40;4.93;;;10.40;99.90;;;;;;5010935;28;20049;-65
2023/04/01 08:05:45;;;;;;;7.78;3.50;;;10.30;99.90;;;;;;4940703;29;20384;-64
2023/04/01 08:08:34;;;;;;;10.23;3.97;;;10.20;99.90;;;;;;5026066;28;20366;-67
2023/04/01 08:11:21;;;;;;;10.98;3.53;;;10.10;99.90;;;;;;5028021;28;20047;-64
2023/04/01 08:14:08;;;;;;;7.63;3.25;;;10.10;99.90;;;;;;5013598;28;20102;-65
2023/04/01 08:17:02;;;;;;;8.50;4.03;;;10.10;99.90;;;;;;5030937;28;20033;-64
2023/04/01 08:19:39;;;;;;;9.32;3.97;;;10.10;99.90;;;;;;5010114;28;20060;-66
2023/04/01 08:22:23;;;;;;;10.25;4.43;;;10.00;99.90;;;;;;5014219;28;20384;-64
2023/04/01 08:24:51;;;;;;;9.85;4.13;;;10.10;99.90;;;;;;5012758;28;20071;-65
2023/04/01 08:27:36;;;;;;;10.25;4.50;;;9.90;99.90;;;;;;5013625;28;20049;-64
2023/04/01 08:30:16;;;;;;;6.78;3.30;;;10.00;99.90;;;;;;5026201;28;20146;-64
2023/04/01 08:32:47;;;;;;;8.27;3.50;;;10.10;99.90;;;;;;5024578;28;20045;-64
2023/04/01 08:35:34;;;;;;;10.05;3.90;;;10.10;99.90;;;;;;5026093;28;20044;-64
2023/04/01 08:38:06;;;;;;;10.15;4.07;;;10.10;99.90;;;;;;5032280;28;20037;-63
2023/04/01 08:41:09;;;;;;;10.23;3.83;;;10.00;99.90;;;;;;5025614;28;20176;-64
2023/04/01 08:43:40;;;;;;;9.95;4.00;;;10.00;99.90;;;;;;4997601;28;20041;-62
2023/04/01 08:46:15;;;;;;;8.70;4.25;;;10.00;99.90;;;;;;5029410;28;20048;-63
2023/04/01 08:48:40;;;;;;;9.98;4.85;;;10.10;99.90;;;;;;5032828;28;20452;-63
2023/04/01 08:51:33;;;;;;;10.45;4.85;;;10.10;99.90;;;;;;5027470;28;20108;-63
2023/04/01 08:54:40;;;;;;;9.25;4.13;;;10.10;99.90;;;;;;5032770;28;20065;-64
2023/04/01 08:57:05;;;;;;;12.55;5.53;;;10.20;99.90;;;;;;4993012;28;20389;-63
2023/04/01 08:59:38;;;;;;;11.18;5.32;;;10.30;99.90;;;;;;5032209;28;20037;-65
2023/04/01 09:02:18;;;;;;;11.38;5.45;;;10.50;99.90;;;;;;5029438;28;20076;-63
2023/04/01 09:04:56;;;;;;;11.50;5.30;;;10.70;99.90;;;;;;5024091;28;20045;-63
2023/04/01 09:07:59;;;;;;;11.27;5.03;;;10.70;99.90;;;;;;5030114;28;20048;-63
2023/04/01 09:10:41;;;;;;;14.23;5.53;;;11.10;99.90;;;;;;5031228;28;20079;-63
2023/04/01 09:13:34;;;;;;;9.77;5.13;;;11.20;99.90;;;;;;5030882;28;20041;-65
2023/04/01 09:16:18;;;;;;;13.68;5.85;;;11.10;99.90;;;;;;5009790;28;20063;-63
2023/04/01 09:19:23;;;;;;;10.35;4.72;;;10.90;99.90;;;;;;5026911;28;20052;-63
2023/04/01 09:22:11;;;;;;;10.07;4.75;;;11.00;99.90;;;;;;4999191;28;20477;-64
2023/04/01 09:25:08;;;;;;;10.43;5.05;;;11.10;99.90;;;;;;5009694;28;20049;-63
2023/04/01 09:27:52;;;;;;;11.15;5.07;;;10.80;99.90;;;;;;5028335;28;20037;-64
2023/04/01 09:30:39;;;;;;;11.52;5.10;;;10.90;99.90;;;;;;5030732;28;20052;-63
2023/04/01 09:33:22;;;;;;;9.48;4.93;;;10.80;99.90;;;;;;5010632;28;20509;-63
2023/04/01 09:36:08;;;;;;;10.10;4.57;;;10.90;99.90;;;;;;5026147;28;20091;-64
2023/04/01 09:38:55;;;;;;;9.73;4.88;;;10.90;99.90;;;;;;5031348;28;20042;-64
2023/04/01 09:41:25;;;;;;;12.07;5.40;;;11.10;99.90;;;;;;5029974;28;20143;-63
2023/04/01 09:44:14;;;;;;;12.00;5.55;;;11.20;99.90;;;;;;5012897;28;20077;-64
2023/04/01 09:46:52;;;;;;;11.52;5.78;;;11.10;99.90;;;;;;5028340;28;20041;-63
2023/04/01 09:49:45;;;;;;;10.77;5.38;;;11.20;99.90;;;;;;5028636;28;20038;-64
2023/04/01 09:52:42;;;;;;;9.88;5.10;;;11.20;99.90;;;;;;5028016;28;20046;-64
2023/04/01 09:55:34;;;;;;;11.52;5.18;;;11.10;99.90;;;;;;5003552;28;20057;-64
2023/04/01 09:58:26;;;;;;;10.82;5.05;;;11.00;99.90;;;;;;5004950;28;20065;-64
2023/04/01 10:01:10;;;;;;;12.70;5.53;;;11.00;99.90;;;;;;5024034;28;20468;-64
2023/04/01 10:04:00;;;;;;;9.25;4.68;;;10.90;99.90;;;;;;5008507;28;20053;-64
2023/04/01 10:07:04;;;;;;;10.27;5.00;;;10.80;99.90;;;;;;5012370;28;20365;-64
2023/04/01 10:09:48;;;;;;;10.10;4.43;;;10.90;99.90;;;;;;4989527;28;20497;-64
2023/04/01 10:12:37;;;;;;;7.95;4.32;;;10.90;99.90;;;;;;5019468;28;20042;-64
2023/04/01 10:15:20;;;;;;;6.45;3.22;;;10.80;99.90;;;;;;5011346;28;20067;-64
2023/04/01 10:18:12;;;;;;;6.10;2.80;;;10.80;99.90;;;;;;5029525;28;20041;-64
2023/04/01 10:21:24;;;;;;;4.07;2.50;;;10.70;99.90;;;;;;5021173;28;20041;-64
2023/04/01 10:24:01;;;;;;;4.72;2.55;;;10.70;99.90;;;;;;4997044;28;20049;-64
2023/04/01 10:26:35;;;;;;;5.18;2.85;;;10.70;99.90;;;;;;5017384;28;20049;-63
2023/04/01 10:29:25;;;;;;;5.45;2.85;;;10.60;99.90;;;;;;5015323;28;20037;-64
2023/04/01 10:31:50;;;;;;;6.75;3.22;;;10.50;99.90;;;;;;5016317;28;20048;-64
2023/04/01 10:34:50;;;;;;;5.03;3.05;;;10.50;99.90;;;;;;5026702;28;20914;-64
2023/04/01 10:37:37;;;;;;;5.15;3.00;;;10.50;99.90;;;;;;5026607;28;20042;-64
2023/04/01 10:40:26;;;;;;;5.47;3.08;;;10.50;99.90;;;;;;5035729;28;20060;-65
2023/04/01 10:43:28;;;;;;;3.75;2.67;;;10.40;99.90;;;;;;5016186;28;20033;-64
2023/04/01 10:46:31;;;;;;;4.25;2.50;;;10.30;99.90;;;;;;5019454;28;20425;-65
2023/04/01 10:49:21;;;;;;;5.47;2.47;;;10.20;99.90;;;;;;5028867;28;20033;-65
2023/04/01 10:52:15;;;;;;;3.75;2.53;;;10.20;99.90;;;;;;5018761;28;20424;-65
2023/04/01 10:54:47;;;;;;;4.72;2.70;;;10.20;99.90;;;;;;5014173;28;20065;-64
2023/04/01 10:57:41;;;;;;;5.82;2.92;;;10.20;99.90;;;;;;5016731;28;20081;-65
2023/04/01 11:00:25;;;;;;;4.97;2.70;;;10.20;99.90;;;;;;5034192;28;20037;-65
2023/04/01 11:03:09;;;;;;;4.43;3.05;;;10.20;99.90;;;;;;5030661;28;20103;-64
2023/04/01 11:06:09;;;;;;;4.72;2.63;;;10.20;99.90;;;;;;5022436;28;20044;-64
2023/04/01 11:09:28;;;;;;;3.80;2.30;;;10.20;99.90;;;;;;5020383;28;20484;-65
2023/04/01 11:12:07;;;;;;;4.05;2.13;;;10.20;99.90;;;;;;5018648;28;20116;-64
2023/04/01 11:14:54;;;;;;;2.78;1.98;;;10.20;99.90;;;;;;5033563;28;20098;-65
2023/04/01 11:17:39;;;;;;;3.25;1.90;;;10.30;99.90;;;;;;5024809;28;20111;-64
2023/04/01 11:20:11;;;;;;;3.00;1.80;;;10.30;99.90;;;;;;5023692;28;20447;-65
2023/04/01 11:23:04;;;;;;;4.20;2.25;;;10.40;99.90;;;;;;5021115;28;20038;-64
2023/04/01 11:25:56;;;;;;;3.25;1.98;;;10.30;99.90;;;;;;5028570;28;20045;-64
2023/04/01 11:28:59;;;;;;;5.10;2.47;;;10.20;99.90;;;;;;5033475;28;20459;-65
2023/04/01 11:32:02;;;;;;;2.60;1.80;;;10.00;99.90;;;;;;5033371;28;20524;-64
2023/04/01 11:35:13;;;;;;;4.15;2.15;;;10.10;99.90;;;;;;5030309;28;20049;-64
2023/04/01 11:37:38;;;;;;;;;;;9.90;99.90;;;;;;4995950;28;20106;-64
2023/04/01 11:40:26;;;;;;;9.88;2.15;;;10.00;99.90;;;;;;5033128;28;20003;-65
2023/04/01 11:43:11;;;;;;;4.43;2.13;;;9.90;99.90;;;;;;5034530;28;20041;-64
2023/04/01 11:46:09;;;;;;;3.58;1.98;;;9.80;99.90;;;;;;5033239;28;20108;-65
2023/04/01 11:48:48;;;;;;;3.67;2.40;;;9.80;99.90;;;;;;5025199;28;20041;-65
2023/04/01 11:51:38;;;;;;;2.90;1.88;;;9.80;99.90;;;;;;5028833;28;20069;-64
2023/04/01 11:54:25;;;;;;;3.25;2.00;;;9.70;99.90;;;;;;5033980;28;20408;-66
2023/04/01 11:56:59;;;;;;;3.13;1.60;;;9.80;99.90;;;;;;5029797;28;20042;-66
2023/04/01 12:00:06;;;;;;;2.17;1.73;;;9.70;99.90;;;;;;5030336;28;20041;-65
2023/04/01 12:03:01;;;;;;;2.03;1.67;;;9.60;99.90;;;;;;5034193;28;20056;-66
2023/04/01 12:05:52;;;;;;;2.60;1.90;;;9.70;99.90;;;;;;5029482;28;20041;-65
2023/04/01 12:08:48;;;;;;;2.83;2.10;;;9.70;99.90;;;;;;5031273;28;20037;-64
2023/04/01 12:11:31;;;;;;;2.67;2.00;;;9.90;99.90;;;;;;5012609;28;20048;-65
2023/04/01 12:14:14;;;;;;;2.85;2.03;;;9.60;99.90;;;;;;5033155;28;20038;-66
2023/04/01 12:16:50;;;;;;;3.28;2.20;;;9.70;99.90;;;;;;5033457;28;20562;-67
2023/04/01 12:19:36;;;;;;;3.75;2.00;;;9.80;99.90;;;;;;5011788;28;20049;-65
2023/04/01 12:22:39;;;;;;;3.30;1.55;;;9.70;99.90;;;;;;5020560;28;20069;-66
2023/04/01 12:25:45;;;;;;;1.90;1.67;;;9.70;99.90;;;;;;5009997;28;20051;-65
2023/04/01 12:28:23;;;;;;;2.38;1.80;;;9.70;99.90;;;;;;5028013;28;20040;-66
2023/04/01 12:31:01;;;;;;;2.60;1.70;;;9.60;99.90;;;;;;5031681;28;20049;-66
2023/04/01 12:33:53;;;;;;;3.05;1.98;;;9.60;99.90;;;;;;5015585;28;20100;-67
2023/04/01 12:36:28;;;;;;;2.42;1.67;;;9.50;99.90;;;;;;5029078;28;20047;-65
2023/04/01 12:39:52;;;;;;;2.72;1.92;;;9.50;99.90;;;;;;5033371;28;20049;-67
2023/04/01 12:42:35;;;;;;;3.10;2.10;;;9.40;99.90;;;;;;4951308;29;20148;-66
2023/04/01 12:45:31;;;;;;;3.33;2.08;;;9.50;99.90;;;;;;4999243;28;20199;-67
2023/04/01 12:48:17;;;;;;;2.72;1.92;;;9.50;99.90;;;;;;5013296;28;20026;-68
2023/04/01 12:51:17;;;;;;;2.78;1.83;;;9.50;99.90;;;;;;5009363;28;20120;-67
2023/04/01 12:53:51;;;;;;;2.38;1.90;;;9.40;99.90;;;;;;5024731;28;20042;-66
2023/04/01 12:56:36;;;;;;;3.40;2.00;;;9.50;99.90;;;;;;5031319;28;20493;-66
2023/04/01 12:59:08;;;;;;;3.53;2.20;;;9.40;99.90;;;;;;5030008;28;20041;-64
2023/04/01 13:01:43;;;;;;;2.42;1.70;;;9.30;99.90;;;;;;5029283;28;20354;-67
2023/04/01 13:04:30;;;;;;;1.77;1.48;;;9.30;99.90;;;;;;5010712;28;20045;-67
2023/04/01 13:07:22;;;;;;;2.47;1.52;;;9.20;99.90;;;;;;5022543;28;20061;-67
2023/04/01 13:09:55;;;;;;;3.28;2.10;;;9.10;99.90;;;;;;5013502;28;20049;-67
2023/04/01 13:12:29;;;;;;;2.03;1.63;;;9.00;99.90;;;;;;5031109;28;20080;-67
2023/04/01 13:15:26;;;;;;;2.42;1.63;;;8.80;99.90;;;;;;5030402;28;20136;-67
2023/04/01 13:18:20;;;;;;;2.00;1.35;;;8.90;99.90;;;;;;5031717;28;20048;-68
2023/04/01 13:21:09;;;;;;;2.75;1.67;;;8.90;99.90;;;;;;5008992;28;20163;-68
2023/04/01 13:24:05;;;;;;;2.72;1.80;;;9.00;99.90;;;;;;5022969;28;20048;-68
2023/04/01 13:27:12;;;;;;;2.83;1.48;;;9.10;99.90;;;;;;5027486;28;20042;-68
2023/04/01 13:29:45;;;;;;;4.70;1.88;;;9.00;99.90;;;;;;5027592;28;20026;-68
2023/04/01 13:32:29;;;;;;;2.03;1.60;;;9.00;99.90;;;;;;5029863;28;20103;-67
2023/04/01 13:35:16;;;;;;;2.13;1.67;;;9.10;99.90;;;;;;5004209;28;20813;-67
2023/04/01 13:38:00;;;;;;;1.95;1.52;;;9.10;99.90;;;;;;5008970;28;20454;-68
2023/04/01 13:40:58;;;;;;;3.05;1.30;;;9.10;99.90;;;;;;5028132;28;20033;-67
2023/04/01 13:43:35;;;;;;;2.20;1.77;;;9.10;99.90;;;;;;5030673;28;20124;-68